sensor_id;sensor_type;location;lat;lon;timestamp;pressure;altitude;pressure_sealevel;temperature;humidity
47738;BME280;33502;47.182;27.506;2023-04-15T00:00:35;99448.97;;;8.71;100.00
47738;BME280;33502;47.182;27.506;2023-04-15T00:03:01;99452.47;;;8.72;100.00
47738;BME280;33502;47.182;27.506;2023-04-15T00:05:30;99453.19;;;8.75;100.00
47738;BME280;33502;47.182;27.506;2023-04-15T00:07:56;99456.41;;;8.80;100.00
47738;BME280;33502;47.182;27.506;2023-04-15T00:10:21;99462.34;;;8.86;100.00
47738;BME280;33502;47.182;27.506;2023-04-15T00:12:47;99454.03;;;8.93;100.00
47738;BME280;33502;47.182;27.506;2023-04-15T00:15:12;99463.91;;;9.07;100.00
47738;BME280;33502;47.182;27.506;2023-04-15T00:17:38;99475.16;;;9.11;100.00
47738;BME280;33502;47.182;27.506;2023-04-15T00:20:04;99485.66;;;9.12;100.00
47738;BME280;33502;47.182;27.506;2023-04-15T00:22:31;99490.94;;;9.12;100.00
47738;BME280;33502;47.182;27.506;2023-04-15T00:24:56;99495.13;;;9.16;100.00
47738;BME280;33502;47.182;27.506;2023-04-15T00:27:22;99496.75;;;9.19;100.00
47738;BME280;33502;47.182;27.506;2023-04-15T00:29:48;99493.28;;;9.18;100.00
47738;BME280;33502;47.182;27.506;2023-04-15T00:32:14;99496.69;;;9.20;100.00
47738;BME280;33502;47.182;27.506;2023-04-15T00:34:40;99486.91;;;9.23;100.00
47738;BME280;33502;47.182;27.506;2023-04-15T00:37:08;99477.34;;;9.20;100.00
47738;BME280;33502;47.182;27.506;2023-04-15T00:39:34;99475.56;;;9.20;100.00
47738;BME280;33502;47.182;27.506;2023-04-15T00:42:01;99471.22;;;9.19;100.00
47738;BME280;33502;47.182;27.506;2023-04-15T00:44:26;99463.63;;;9.13;100.00
47738;BME280;33502;47.182;27.506;2023-04-15T00:46:52;99463.19;;;9.04;100.00
47738;BME280;33502;47.182;27.506;2023-04-15T00:49:18;99467.38;;;8.90;100.00
47738;BME280;33502;47.182;27.506;2023-04-15T00:51:44;99461.88;;;8.77;100.00
47738;BME280;33502;47.182;27.506;2023-04-15T00:54:10;99446.69;;;8.63;100.00
47738;BME280;33502;47.182;27.506;2023-04-15T00:56:36;99444.78;;;8.48;100.00
47738;BME280;33502;47.182;27.506;2023-04-15T00:59:03;99441.88;;;8.35;100.00
47738;BME280;33502;47.182;27.506;2023-04-15T01:01:28;99452.00;;;8.26;100.00
47738;BME280;33502;47.182;27.506;2023-04-15T01:03:55;99462.91;;;8.18;100.00
47738;BME280;33502;47.182;27.506;2023-04-15T01:06:22;99462.22;;;8.14;100.00
47738;BME280;33502;47.182;27.506;2023-04-15T01:08:48;99456.16;;;8.12;100.00
47738;BME280;33502;47.182;27.506;2023-04-15T01:11:14;99450.94;;;8.11;100.00
47738;BME280;33502;47.182;27.506;2023-04-15T01:13:40;99444.94;;;8.07;100.00
47738;BME280;33502;47.182;27.506;2023-04-15T01:16:06;99442.53;;;8.02;100.00
47738;BME280;33502;47.182;27.506;2023-04-15T01:18:33;99454.91;;;8.00;100.00
47738;BME280;33502;47.182;27.506;2023-04-15T01:20:59;99465.44;;;8.00;100.00
47738;BME280;33502;47.182;27.506;2023-04-15T01:23:25;99468.25;;;7.97;100.00
47738;BME280;33502;47.182;27.506;2023-04-15T01:25:51;99473.59;;;7.96;100.00
47738;BME280;33502;47.182;27.506;2023-04-15T01:28:17;99478.97;;;7.93;100.00
47738;BME280;33502;47.182;27.506;2023-04-15T01:30:43;99487.13;;;7.88;100.00
47738;BME280;33502;47.182;27.506;2023-04-15T01:33:09;99494.31;;;7.84;100.00
47738;BME280;33502;47.182;27.506;2023-04-15T01:35:53;99497.00;;;7.83;100.00
47738;BME280;33502;47.182;27.506;2023-04-15T01:38:24;99504.13;;;7.81;100.00
47738;BME280;33502;47.182;27.506;2023-04-15T01:40:50;99509.44;;;7.79;100.00
47738;BME280;33502;47.182;27.506;2023-04-15T01:43:17;99484.03;;;7.78;100.00
47738;BME280;33502;47.182;27.506;2023-04-15T01:45:44;99470.00;;;7.78;100.00
47738;BME280;33502;47.182;27.506;2023-04-15T01:48:11;99463.88;;;7.77;100.00
47738;BME280;33502;47.182;27.506;2023-04-15T01:50:38;99478.75;;;7.78;100.00
47738;BME280;33502;47.182;27.506;2023-04-15T01:53:05;99467.38;;;7.78;100.00
47738;BME280;33502;47.182;27.506;2023-04-15T01:55:32;99479.78;;;7.76;100.00
47738;BME280;33502;47.182;27.506;2023-04-15T01:57:58;99477.25;;;7.73;100.00
47738;BME280;33502;47.182;27.506;2023-04-15T02:00:26;99484.38;;;7.71;100.00
47738;BME280;33502;47.182;27.506;2023-04-15T02:02:52;99477.38;;;7.70;100.00
47738;BME280;33502;47.182;27.506;2023-04-15T02:05:20;99465.94;;;7.71;100.00
47738;BME280;33502;47.182;27.506;2023-04-15T02:07:47;99452.69;;;7.72;100.00
47738;BME280;33502;47.182;27.506;2023-04-15T02:10:14;99450.13;;;7.71;100.00
47738;BME280;33502;47.182;27.506;2023-04-15T02:12:42;99453.59;;;7.71;100.00
47738;BME280;33502;47.182;27.506;2023-04-15T02:15:09;99435.09;;;7.73;100.00
47738;BME280;33502;47.182;27.506;2023-04-15T02:17:36;99442.78;;;7.77;100.00
47738;BME280;33502;47.182;27.506;2023-04-15T02:20:03;99434.69;;;7.82;100.00
47738;BME280;33502;47.182;27.506;2023-04-15T02:22:34;99443.38;;;7.84;100.00
47738;BME280;33502;47.182;27.506;2023-04-15T02:25:01;99457.41;;;7.84;100.00
47738;BME280;33502;47.182;27.506;2023-04-15T02:27:27;99457.22;;;7.89;100.00
47738;BME280;33502;47.182;27.506;2023-04-15T02:29:54;99449.94;;;7.94;100.00
47738;BME280;33502;47.182;27.506;2023-04-15T02:32:21;99452.38;;;7.99;100.00
47738;BME280;33502;47.182;27.506;2023-04-15T02:34:49;99431.06;;;8.03;100.00
47738;BME280;33502;47.182;27.506;2023-04-15T02:37:18;99436.25;;;8.05;100.00
47738;BME280;33502;47.182;27.506;2023-04-15T02:39:46;99427.41;;;8.06;100.00
47738;BME280;33502;47.182;27.506;2023-04-15T02:42:12;99432.69;;;8.06;100.00
47738;BME280;33502;47.182;27.506;2023-04-15T02:44:39;99428.91;;;8.12;100.00
47738;BME280;33502;47.182;27.506;2023-04-15T02:47:06;99434.81;;;8.17;100.00
47738;BME280;33502;47.182;27.506;2023-04-15T02:49:33;99405.69;;;8.20;100.00
47738;BME280;33502;47.182;27.506;2023-04-15T02:52:00;99398.63;;;8.20;100.00
47738;BME280;33502;47.182;27.506;2023-04-15T02:54:27;99411.88;;;8.19;100.00
47738;BME280;33502;47.182;27.506;2023-04-15T02:56:54;99417.00;;;8.22;100.00
47738;BME280;33502;47.182;27.506;2023-04-15T02:59:22;99427.63;;;8.20;100.00
47738;BME280;33502;47.182;27.506;2023-04-15T03:01:48;99438.09;;;8.22;100.00
47738;BME280;33502;47.182;27.506;2023-04-15T03:04:16;99447.53;;;8.28;100.00
47738;BME280;33502;47.182;27.506;2023-04-15T03:06:42;99460.72;;;8.28;100.00
47738;BME280;33502;47.182;27.506;2023-04-15T03:09:10;99471.16;;;8.29;100.00
47738;BME280;33502;47.182;27.506;2023-04-15T03:11:38;99477.25;;;8.31;100.00
47738;BME280;33502;47.182;27.506;2023-04-15T03:14:08;99499.19;;;8.32;100.00
47738;BME280;33502;47.182;27.506;2023-04-15T03:16:39;99510.59;;;8.32;100.00
47738;BME280;33502;47.182;27.506;2023-04-15T03:19:06;99506.25;;;8.31;100.00
47738;BME280;33502;47.182;27.506;2023-04-15T03:21:33;99493.06;;;8.31;100.00
47738;BME280;33502;47.182;27.506;2023-04-15T03:24:00;99468.63;;;8.28;100.00
47738;BME280;33502;47.182;27.506;2023-04-15T03:26:28;99465.09;;;8.27;100.00
47738;BME280;33502;47.182;27.506;2023-04-15T03:28:59;99478.28;;;8.27;100.00
47738;BME280;33502;47.182;27.506;2023-04-15T03:31:27;99487.16;;;8.26;100.00
47738;BME280;33502;47.182;27.506;2023-04-15T03:33:54;99494.13;;;8.27;100.00
47738;BME280;33502;47.182;27.506;2023-04-15T03:36:21;99483.44;;;8.30;100.00
47738;BME280;33502;47.182;27.506;2023-04-15T03:38:48;99480.72;;;8.32;100.00
47738;BME280;33502;47.182;27.506;2023-04-15T03:41:15;99498.97;;;8.36;100.00
47738;BME280;33502;47.182;27.506;2023-04-15T03:43:42;99481.28;;;8.38;100.00
47738;BME280;33502;47.182;27.506;2023-04-15T03:46:09;99495.25;;;8.40;100.00
47738;BME280;33502;47.182;27.506;2023-04-15T03:48:36;99499.59;;;8.43;100.00
47738;BME280;33502;47.182;27.506;2023-04-15T03:51:03;99484.59;;;8.43;100.00
47738;BME280;33502;47.182;27.506;2023-04-15T03:53:30;99494.13;;;8.46;100.00
47738;BME280;33502;47.182;27.506;2023-04-15T03:55:57;99510.75;;;8.48;100.00
47738;BME280;33502;47.182;27.506;2023-04-15T03:58:23;99527.38;;;8.50;100.00
47738;BME280;33502;47.182;27.506;2023-04-15T04:00:50;99546.66;;;8.52;100.00
47738;BME280;33502;47.182;27.506;2023-04-15T04:03:18;99550.97;;;8.53;100.00
47738;BME280;33502;47.182;27.506;2023-04-15T04:05:44;99557.03;;;8.55;100.00
47738;BME280;33502;47.182;27.506;2023-04-15T04:08:12;99560.47;;;8.57;100.00
47738;BME280;33502;47.182;27.506;2023-04-15T04:10:41;99565.59;;;8.60;100.00
47738;BME280;33502;47.182;27.506;2023-04-15T04:13:08;99568.25;;;8.60;100.00
47738;BME280;33502;47.182;27.506;2023-04-15T04:15:35;99561.34;;;8.58;100.00
47738;BME280;33502;47.182;27.506;2023-04-15T04:18:02;99551.75;;;8.55;100.00
47738;BME280;33502;47.182;27.506;2023-04-15T04:20:29;99560.63;;;8.54;100.00
47738;BME280;33502;47.182;27.506;2023-04-15T04:22:57;99550.97;;;8.53;100.00
47738;BME280;33502;47.182;27.506;2023-04-15T04:25:24;99552.59;;;8.56;100.00
47738;BME280;33502;47.182;27.506;2023-04-15T04:27:51;99557.88;;;8.56;100.00
47738;BME280;33502;47.182;27.506;2023-04-15T04:30:18;99559.53;;;8.58;100.00
47738;BME280;33502;47.182;27.506;2023-04-15T04:32:45;99552.47;;;8.59;100.00
47738;BME280;33502;47.182;27.506;2023-04-15T04:35:12;99563.88;;;8.59;100.00
47738;BME280;33502;47.182;27.506;2023-04-15T04:37:39;99569.03;;;8.62;100.00
47738;BME280;33502;47.182;27.506;2023-04-15T04:40:06;99569.75;;;8.66;100.00
47738;BME280;33502;47.182;27.506;2023-04-15T04:42:33;99581.88;;;8.70;100.00
47738;BME280;33502;47.182;27.506;2023-04-15T04:45:00;99578.16;;;8.74;100.00
47738;BME280;33502;47.182;27.506;2023-04-15T04:47:27;99571.00;;;8.76;100.00
47738;BME280;33502;47.182;27.506;2023-04-15T04:49:54;99559.47;;;8.79;100.00
47738;BME280;33502;47.182;27.506;2023-04-15T04:52:21;99560.16;;;8.82;100.00
47738;BME280;33502;47.182;27.506;2023-04-15T04:54:47;99563.44;;;8.88;100.00
47738;BME280;33502;47.182;27.506;2023-04-15T04:57:14;99558.81;;;8.93;100.00
47738;BME280;33502;47.182;27.506;2023-04-15T04:59:41;99559.28;;;9.01;100.00
47738;BME280;33502;47.182;27.506;2023-04-15T05:02:08;99553.69;;;9.07;100.00
47738;BME280;33502;47.182;27.506;2023-04-15T05:04:35;99561.94;;;9.18;100.00
47738;BME280;33502;47.182;27.506;2023-04-15T05:07:02;99565.69;;;9.32;100.00
47738;BME280;33502;47.182;27.506;2023-04-15T05:09:29;99572.84;;;9.47;100.00
47738;BME280;33502;47.182;27.506;2023-04-15T05:11:58;99576.38;;;9.65;100.00
47738;BME280;33502;47.182;27.506;2023-04-15T05:14:24;99567.41;;;9.85;100.00
47738;BME280;33502;47.182;27.506;2023-04-15T05:16:52;99558.47;;;10.21;100.00
47738;BME280;33502;47.182;27.506;2023-04-15T05:19:19;99562.28;;;10.49;100.00
47738;BME280;33502;47.182;27.506;2023-04-15T05:21:45;99564.16;;;10.47;100.00
47738;BME280;33502;47.182;27.506;2023-04-15T05:24:12;99570.94;;;10.52;100.00
47738;BME280;33502;47.182;27.506;2023-04-15T05:26:39;99563.44;;;10.61;100.00
47738;BME280;33502;47.182;27.506;2023-04-15T05:29:06;99571.97;;;10.66;100.00
47738;BME280;33502;47.182;27.506;2023-04-15T05:31:33;99567.97;;;10.58;100.00
47738;BME280;33502;47.182;27.506;2023-04-15T05:34:00;99568.28;;;10.52;100.00
47738;BME280;33502;47.182;27.506;2023-04-15T05:36:27;99577.81;;;10.39;100.00
47738;BME280;33502;47.182;27.506;2023-04-15T05:38:54;99566.66;;;10.34;100.00
47738;BME280;33502;47.182;27.506;2023-04-15T05:41:21;99570.91;;;10.36;100.00
47738;BME280;33502;47.182;27.506;2023-04-15T05:43:47;99562.13;;;10.36;100.00
47738;BME280;33502;47.182;27.506;2023-04-15T05:46:14;99570.00;;;10.37;100.00
47738;BME280;33502;47.182;27.506;2023-04-15T05:48:41;99576.81;;;10.42;100.00
47738;BME280;33502;47.182;27.506;2023-04-15T05:51:09;99584.84;;;10.40;100.00
47738;BME280;33502;47.182;27.506;2023-04-15T05:53:37;99591.75;;;10.43;100.00
47738;BME280;33502;47.182;27.506;2023-04-15T05:56:04;99595.94;;;10.47;100.00
47738;BME280;33502;47.182;27.506;2023-04-15T05:58:31;99602.00;;;10.49;100.00
47738;BME280;33502;47.182;27.506;2023-04-15T06:00:58;99593.13;;;10.50;100.00
47738;BME280;33502;47.182;27.506;2023-04-15T06:03:25;99595.16;;;10.45;100.00
47738;BME280;33502;47.182;27.506;2023-04-15T06:05:52;99583.25;;;10.53;100.00
47738;BME280;33502;47.182;27.506;2023-04-15T06:08:18;99580.25;;;10.75;100.00
47738;BME280;33502;47.182;27.506;2023-04-15T06:10:46;99578.31;;;10.95;100.00
47738;BME280;33502;47.182;27.506;2023-04-15T06:13:12;99576.75;;;11.07;100.00
47738;BME280;33502;47.182;27.506;2023-04-15T06:15:39;99581.44;;;11.02;100.00
47738;BME280;33502;47.182;27.506;2023-04-15T06:18:06;99588.28;;;11.06;100.00
47738;BME280;33502;47.182;27.506;2023-04-15T06:20:33;99590.78;;;10.93;100.00
47738;BME280;33502;47.182;27.506;2023-04-15T06:23:00;99599.25;;;10.84;100.00
47738;BME280;33502;47.182;27.506;2023-04-15T06:25:27;99590.00;;;10.75;100.00
47738;BME280;33502;47.182;27.506;2023-04-15T06:27:54;99584.63;;;10.92;100.00
47738;BME280;33502;47.182;27.506;2023-04-15T06:30:21;99577.88;;;11.79;100.00
47738;BME280;33502;47.182;27.506;2023-04-15T06:32:48;99586.06;;;12.05;100.00
47738;BME280;33502;47.182;27.506;2023-04-15T06:35:14;99595.19;;;12.15;100.00
47738;BME280;33502;47.182;27.506;2023-04-15T06:37:41;99598.66;;;11.71;100.00
47738;BME280;33502;47.182;27.506;2023-04-15T06:40:08;99606.34;;;11.45;100.00
47738;BME280;33502;47.182;27.506;2023-04-15T06:42:35;99615.09;;;11.31;100.00
47738;BME280;33502;47.182;27.506;2023-04-15T06:45:03;99625.38;;;11.22;100.00
47738;BME280;33502;47.182;27.506;2023-04-15T06:47:30;99635.63;;;11.28;100.00
47738;BME280;33502;47.182;27.506;2023-04-15T06:49:57;99648.81;;;11.29;100.00
47738;BME280;33502;47.182;27.506;2023-04-15T06:52:24;99643.72;;;11.56;100.00
47738;BME280;33502;47.182;27.506;2023-04-15T06:54:51;99624.91;;;11.91;100.00
47738;BME280;33502;47.182;27.506;2023-04-15T06:57:18;99625.53;;;12.68;100.00
47738;BME280;33502;47.182;27.506;2023-04-15T06:59:45;99630.13;;;14.02;100.00
47738;BME280;33502;47.182;27.506;2023-04-15T07:02:12;99627.44;;;13.77;100.00
47738;BME280;33502;47.182;27.506;2023-04-15T07:04:40;99629.25;;;13.89;100.00
47738;BME280;33502;47.182;27.506;2023-04-15T07:07:06;99640.47;;;13.94;100.00
47738;BME280;33502;47.182;27.506;2023-04-15T07:09:33;99646.03;;;14.42;100.00
47738;BME280;33502;47.182;27.506;2023-04-15T07:12:00;99650.53;;;14.67;100.00
47738;BME280;33502;47.182;27.506;2023-04-15T07:14:27;99644.53;;;14.13;100.00
47738;BME280;33502;47.182;27.506;2023-04-15T07:16:55;99639.47;;;15.59;100.00
47738;BME280;33502;47.182;27.506;2023-04-15T07:19:22;99664.53;;;15.93;100.00
47738;BME280;33502;47.182;27.506;2023-04-15T07:21:49;99665.56;;;15.79;100.00
47738;BME280;33502;47.182;27.506;2023-04-15T07:24:15;99670.59;;;15.23;100.00
47738;BME280;33502;47.182;27.506;2023-04-15T07:26:44;99671.88;;;14.67;100.00
47738;BME280;33502;47.182;27.506;2023-04-15T07:29:11;99670.25;;;14.52;100.00
47738;BME280;33502;47.182;27.506;2023-04-15T07:31:38;99673.31;;;14.20;100.00
47738;BME280;33502;47.182;27.506;2023-04-15T07:34:05;99673.13;;;13.96;100.00
47738;BME280;33502;47.182;27.506;2023-04-15T07:36:32;99671.88;;;13.62;100.00
47738;BME280;33502;47.182;27.506;2023-04-15T07:38:59;99677.28;;;13.33;100.00
47738;BME280;33502;47.182;27.506;2023-04-15T07:41:29;99679.19;;;13.17;100.00
47738;BME280;33502;47.182;27.506;2023-04-15T07:43:56;99679.94;;;13.33;100.00
47738;BME280;33502;47.182;27.506;2023-04-15T07:46:23;99680.50;;;13.24;100.00
47738;BME280;33502;47.182;27.506;2023-04-15T07:48:50;99686.34;;;13.02;100.00
47738;BME280;33502;47.182;27.506;2023-04-15T07:51:18;99686.25;;;12.75;100.00
47738;BME280;33502;47.182;27.506;2023-04-15T07:53:45;99678.56;;;12.56;100.00
47738;BME280;33502;47.182;27.506;2023-04-15T07:56:12;99675.88;;;12.41;100.00
47738;BME280;33502;47.182;27.506;2023-04-15T07:58:39;99683.56;;;12.31;100.00
47738;BME280;33502;47.182;27.506;2023-04-15T08:01:05;99682.03;;;12.27;100.00
47738;BME280;33502;47.182;27.506;2023-04-15T08:03:33;99692.66;;;12.27;100.00
47738;BME280;33502;47.182;27.506;2023-04-15T08:06:00;99698.72;;;12.29;100.00
47738;BME280;33502;47.182;27.506;2023-04-15T08:08:27;99694.09;;;12.33;100.00
47738;BME280;33502;47.182;27.506;2023-04-15T08:10:54;99698.09;;;12.40;100.00
47738;BME280;33502;47.182;27.506;2023-04-15T08:13:20;99689.66;;;12.48;100.00
47738;BME280;33502;47.182;27.506;2023-04-15T08:15:52;99697.44;;;12.51;100.00
47738;BME280;33502;47.182;27.506;2023-04-15T08:18:19;99706.34;;;12.64;100.00
47738;BME280;33502;47.182;27.506;2023-04-15T08:20:46;99704.53;;;12.65;100.00
47738;BME280;33502;47.182;27.506;2023-04-15T08:23:13;99702.00;;;12.63;100.00
47738;BME280;33502;47.182;27.506;2023-04-15T08:25:40;99697.25;;;12.54;100.00
47738;BME280;33502;47.182;27.506;2023-04-15T08:28:07;99707.13;;;12.52;100.00
47738;BME280;33502;47.182;27.506;2023-04-15T08:30:34;99706.81;;;12.57;100.00
47738;BME280;33502;47.182;27.506;2023-04-15T08:33:01;99707.13;;;12.52;100.00
47738;BME280;33502;47.182;27.506;2023-04-15T08:35:28;99701.38;;;12.44;100.00
47738;BME280;33502;47.182;27.506;2023-04-15T08:37:54;99694.38;;;12.43;100.00
47738;BME280;33502;47.182;27.506;2023-04-15T08:40:22;99691.16;;;12.38;100.00
47738;BME280;33502;47.182;27.506;2023-04-15T08:42:52;99701.59;;;12.41;100.00
47738;BME280;33502;47.182;27.506;2023-04-15T08:45:22;99697.13;;;12.41;100.00
47738;BME280;33502;47.182;27.506;2023-04-15T08:47:49;99702.81;;;12.35;100.00
47738;BME280;33502;47.182;27.506;2023-04-15T08:50:20;99692.56;;;12.29;100.00
47738;BME280;33502;47.182;27.506;2023-04-15T08:52:48;99705.09;;;12.27;100.00
47738;BME280;33502;47.182;27.506;2023-04-15T08:55:15;99703.00;;;12.32;100.00
47738;BME280;33502;47.182;27.506;2023-04-15T08:57:42;99697.69;;;12.32;100.00
47738;BME280;33502;47.182;27.506;2023-04-15T09:00:09;99708.97;;;12.36;100.00
47738;BME280;33502;47.182;27.506;2023-04-15T09:02:36;99714.56;;;12.31;100.00
47738;BME280;33502;47.182;27.506;2023-04-15T09:05:03;99709.53;;;12.26;100.00
47738;BME280;33502;47.182;27.506;2023-04-15T09:07:32;99711.63;;;12.21;100.00
47738;BME280;33502;47.182;27.506;2023-04-15T09:10:01;99702.50;;;12.25;100.00
47738;BME280;33502;47.182;27.506;2023-04-15T09:12:28;99690.13;;;12.40;100.00
47738;BME280;33502;47.182;27.506;2023-04-15T09:14:55;99697.63;;;12.48;100.00
47738;BME280;33502;47.182;27.506;2023-04-15T09:17:23;99700.84;;;12.53;100.00
47738;BME280;33502;47.182;27.506;2023-04-15T09:20:06;99696.69;;;12.63;100.00
47738;BME280;33502;47.182;27.506;2023-04-15T09:22:33;99708.84;;;12.67;100.00
47738;BME280;33502;47.182;27.506;2023-04-15T09:25:00;99712.25;;;12.69;100.00
47738;BME280;33502;47.182;27.506;2023-04-15T09:27:27;99712.63;;;12.78;100.00
47738;BME280;33502;47.182;27.506;2023-04-15T09:29:53;99711.00;;;12.89;100.00
47738;BME280;33502;47.182;27.506;2023-04-15T09:32:20;99719.84;;;12.90;100.00
47738;BME280;33502;47.182;27.506;2023-04-15T09:34:49;99709.97;;;12.92;100.00
47738;BME280;33502;47.182;27.506;2023-04-15T09:37:16;99715.47;;;13.03;100.00
47738;BME280;33502;47.182;27.506;2023-04-15T09:42:14;99702.94;;;13.05;100.00
47738;BME280;33502;47.182;27.506;2023-04-15T09:44:41;99698.28;;;13.38;100.00
47738;BME280;33502;47.182;27.506;2023-04-15T09:47:08;99712.75;;;13.46;100.00
47738;BME280;33502;47.182;27.506;2023-04-15T09:49:34;99701.03;;;13.36;100.00
47738;BME280;33502;47.182;27.506;2023-04-15T09:52:01;99701.63;;;13.54;100.00
47738;BME280;33502;47.182;27.506;2023-04-15T09:54:32;99699.63;;;13.58;100.00
47738;BME280;33502;47.182;27.506;2023-04-15T09:57:03;99708.66;;;13.82;100.00
47738;BME280;33502;47.182;27.506;2023-04-15T09:59:30;99724.22;;;13.88;100.00
47738;BME280;33502;47.182;27.506;2023-04-15T10:01:57;99732.22;;;13.47;100.00
47738;BME280;33502;47.182;27.506;2023-04-15T10:04:25;99710.53;;;13.11;100.00
47738;BME280;33502;47.182;27.506;2023-04-15T10:06:53;99707.19;;;13.08;100.00
47738;BME280;33502;47.182;27.506;2023-04-15T10:09:20;99708.63;;;12.99;100.00
47738;BME280;33502;47.182;27.506;2023-04-15T10:11:47;99710.53;;;12.97;100.00
47738;BME280;33502;47.182;27.506;2023-04-15T10:14:15;99698.00;;;12.99;100.00
47738;BME280;33502;47.182;27.506;2023-04-15T10:16:43;99707.28;;;13.06;100.00
47738;BME280;33502;47.182;27.506;2023-04-15T10:19:14;99706.25;;;12.95;100.00
47738;BME280;33502;47.182;27.506;2023-04-15T10:21:42;99711.78;;;12.77;100.00
47738;BME280;33502;47.182;27.506;2023-04-15T10:24:10;99719.16;;;12.58;100.00
47738;BME280;33502;47.182;27.506;2023-04-15T10:26:37;99720.94;;;12.43;100.00
47738;BME280;33502;47.182;27.506;2023-04-15T10:29:04;99710.31;;;12.43;100.00
47738;BME280;33502;47.182;27.506;2023-04-15T10:31:31;99699.63;;;12.44;100.00
47738;BME280;33502;47.182;27.506;2023-04-15T10:33:58;99689.53;;;12.49;100.00
47738;BME280;33502;47.182;27.506;2023-04-15T10:36:29;99688.53;;;12.52;100.00
47738;BME280;33502;47.182;27.506;2023-04-15T10:38:56;99691.66;;;12.59;100.00
47738;BME280;33502;47.182;27.506;2023-04-15T10:41:26;99676.47;;;12.61;100.00
47738;BME280;33502;47.182;27.506;2023-04-15T10:44:00;99676.97;;;12.67;100.00
47738;BME280;33502;47.182;27.506;2023-04-15T10:46:35;99708.00;;;12.67;100.00
47738;BME280;33502;47.182;27.506;2023-04-15T10:49:08;99711.66;;;12.64;100.00
47738;BME280;33502;47.182;27.506;2023-04-15T10:51:40;99707.41;;;12.62;100.00
47738;BME280;33502;47.182;27.506;2023-04-15T10:54:08;99695.16;;;12.73;100.00
47738;BME280;33502;47.182;27.506;2023-04-15T10:56:40;99673.13;;;12.86;100.00
47738;BME280;33502;47.182;27.506;2023-04-15T10:59:07;99662.91;;;12.94;100.00
47738;BME280;33502;47.182;27.506;2023-04-15T11:07:05;99679.13;;;12.89;100.00
47738;BME280;33502;47.182;27.506;2023-04-15T11:09:33;99676.47;;;12.89;100.00
47738;BME280;33502;47.182;27.506;2023-04-15T11:12:03;99681.97;;;13.01;100.00
47738;BME280;33502;47.182;27.506;2023-04-15T11:14:31;99676.06;;;13.10;100.00
47738;BME280;33502;47.182;27.506;2023-04-15T11:16:58;99667.53;;;13.05;100.00
47738;BME280;33502;47.182;27.506;2023-04-15T11:19:25;99660.59;;;13.02;100.00
47738;BME280;33502;47.182;27.506;2023-04-15T11:21:52;99673.31;;;13.11;100.00
47738;BME280;33502;47.182;27.506;2023-04-15T11:24:23;99670.00;;;13.08;100.00
47738;BME280;33502;47.182;27.506;2023-04-15T11:26:58;99659.84;;;13.15;100.00
47738;BME280;33502;47.182;27.506;2023-04-15T11:29:33;99663.69;;;13.23;100.00
47738;BME280;33502;47.182;27.506;2023-04-15T11:32:07;99658.72;;;13.46;100.00
47738;BME280;33502;47.182;27.506;2023-04-15T11:34:34;99665.31;;;14.46;100.00
47738;BME280;33502;47.182;27.506;2023-04-15T11:37:05;99671.34;;;15.25;100.00
47738;BME280;33502;47.182;27.506;2023-04-15T11:39:32;99665.78;;;16.00;100.00
47738;BME280;33502;47.182;27.506;2023-04-15T11:41:59;99669.06;;;16.62;100.00
47738;BME280;33502;47.182;27.506;2023-04-15T11:44:25;99664.34;;;16.99;100.00
47738;BME280;33502;47.182;27.506;2023-04-15T11:46:53;99671.75;;;17.07;100.00
47738;BME280;33502;47.182;27.506;2023-04-15T11:49:29;99672.38;;;16.99;100.00
47738;BME280;33502;47.182;27.506;2023-04-15T11:51:55;99668.13;;;17.08;100.00
47738;BME280;33502;47.182;27.506;2023-04-15T11:54:21;99667.13;;;17.09;100.00
47738;BME280;33502;47.182;27.506;2023-04-15T11:56:50;99658.28;;;17.09;100.00
47738;BME280;33502;47.182;27.506;2023-04-15T11:59:16;99664.25;;;16.90;100.00
47738;BME280;33502;47.182;27.506;2023-04-15T12:01:42;99662.38;;;16.79;100.00
47738;BME280;33502;47.182;27.506;2023-04-15T12:04:14;99656.19;;;17.24;100.00
47738;BME280;33502;47.182;27.506;2023-04-15T12:06:41;99658.78;;;17.02;100.00
47738;BME280;33502;47.182;27.506;2023-04-15T12:09:11;99657.13;;;16.66;100.00
47738;BME280;33502;47.182;27.506;2023-04-15T12:11:41;99660.56;;;16.91;100.00
47738;BME280;33502;47.182;27.506;2023-04-15T12:14:10;99666.53;;;17.17;100.00
47738;BME280;33502;47.182;27.506;2023-04-15T12:16:40;99676.91;;;17.54;100.00
47738;BME280;33502;47.182;27.506;2023-04-15T12:19:11;99673.31;;;17.76;100.00
47738;BME280;33502;47.182;27.506;2023-04-15T12:21:38;99663.97;;;18.24;100.00
47738;BME280;33502;47.182;27.506;2023-04-15T12:24:05;99666.44;;;17.62;100.00
47738;BME280;33502;47.182;27.506;2023-04-15T12:26:42;99661.88;;;17.74;100.00
47738;BME280;33502;47.182;27.506;2023-04-15T12:29:23;99659.22;;;17.63;100.00
47738;BME280;33502;47.182;27.506;2023-04-15T12:31:56;99651.75;;;17.89;100.00
47738;BME280;33502;47.182;27.506;2023-04-15T12:34:31;99651.25;;;17.84;100.00
47738;BME280;33502;47.182;27.506;2023-04-15T12:36:58;99650.00;;;17.00;100.00
47738;BME280;33502;47.182;27.506;2023-04-15T12:39:24;99654.59;;;16.42;100.00
47738;BME280;33502;47.182;27.506;2023-04-15T12:41:50;99663.63;;;16.05;100.00
47738;BME280;33502;47.182;27.506;2023-04-15T12:44:16;99659.00;;;16.08;100.00
47738;BME280;33502;47.182;27.506;2023-04-15T12:46:42;99674.03;;;16.09;100.00
47738;BME280;33502;47.182;27.506;2023-04-15T12:49:08;99674.88;;;16.56;100.00
47738;BME280;33502;47.182;27.506;2023-04-15T12:51:33;99678.06;;;16.61;100.00